sensor_id;sensor_type;location;lat;lon;timestamp;temperature;humidity
66144;SHT31;52947;50.842;6.084;2023-02-28T00:01:25;-0.79;80.42
66144;SHT31;52947;50.842;6.084;2023-02-28T00:03:55;-0.88;80.65
66144;SHT31;52947;50.842;6.084;2023-02-28T00:06:23;-0.99;81.47
66144;SHT31;52947;50.842;6.084;2023-02-28T00:08:51;-0.88;81.32
66144;SHT31;52947;50.842;6.084;2023-02-28T00:11:20;-0.74;80.94
66144;SHT31;52947;50.842;6.084;2023-02-28T00:13:49;-0.74;80.91
66144;SHT31;52947;50.842;6.084;2023-02-28T00:16:18;-0.72;80.72
66144;SHT31;52947;50.842;6.084;2023-02-28T00:18:47;-0.72;80.71
66144;SHT31;52947;50.842;6.084;2023-02-28T00:21:17;-0.79;80.74
66144;SHT31;52947;50.842;6.084;2023-02-28T00:23:45;-0.89;81.09
66144;SHT31;52947;50.842;6.084;2023-02-28T00:26:14;-0.75;80.47
66144;SHT31;52947;50.842;6.084;2023-02-28T00:28:44;-0.78;80.47
66144;SHT31;52947;50.842;6.084;2023-02-28T00:31:12;-0.84;80.53
66144;SHT31;52947;50.842;6.084;2023-02-28T00:33:40;-0.88;80.92
66144;SHT31;52947;50.842;6.084;2023-02-28T00:36:10;-0.89;80.89
66144;SHT31;52947;50.842;6.084;2023-02-28T00:38:40;-0.88;80.88
66144;SHT31;52947;50.842;6.084;2023-02-28T00:41:09;-0.85;80.69
66144;SHT31;52947;50.842;6.084;2023-02-28T00:43:38;-0.82;80.37
66144;SHT31;52947;50.842;6.084;2023-02-28T00:46:07;-0.82;80.17
66144;SHT31;52947;50.842;6.084;2023-02-28T00:48:36;-0.81;79.99
66144;SHT31;52947;50.842;6.084;2023-02-28T00:51:04;-0.88;80.24
66144;SHT31;52947;50.842;6.084;2023-02-28T00:53:32;-0.92;80.45
66144;SHT31;52947;50.842;6.084;2023-02-28T00:56:02;-1.00;80.68
66144;SHT31;52947;50.842;6.084;2023-02-28T00:58:30;-1.06;80.82
66144;SHT31;52947;50.842;6.084;2023-02-28T01:00:58;-1.09;80.85
66144;SHT31;52947;50.842;6.084;2023-02-28T01:03:26;-1.02;80.55
66144;SHT31;52947;50.842;6.084;2023-02-28T01:05:54;-0.89;80.80
66144;SHT31;52947;50.842;6.084;2023-02-28T01:08:22;-0.75;80.55
66144;SHT31;52947;50.842;6.084;2023-02-28T01:10:53;-0.72;80.18
66144;SHT31;52947;50.842;6.084;2023-02-28T01:13:23;-0.88;80.44
66144;SHT31;52947;50.842;6.084;2023-02-28T01:15:54;-0.92;80.60
66144;SHT31;52947;50.842;6.084;2023-02-28T01:18:23;-0.86;80.78
66144;SHT31;52947;50.842;6.084;2023-02-28T01:20:52;-0.86;80.59
66144;SHT31;52947;50.842;6.084;2023-02-28T01:23:21;-0.93;80.53
66144;SHT31;52947;50.842;6.084;2023-02-28T01:25:50;-1.03;80.33
66144;SHT31;52947;50.842;6.084;2023-02-28T01:28:18;-1.32;81.08
66144;SHT31;52947;50.842;6.084;2023-02-28T01:30:51;-1.44;81.70
66144;SHT31;52947;50.842;6.084;2023-02-28T01:33:19;-1.36;81.54
66144;SHT31;52947;50.842;6.084;2023-02-28T01:35:47;-1.42;81.99
66144;SHT31;52947;50.842;6.084;2023-02-28T01:38:15;-1.50;81.75
66144;SHT31;52947;50.842;6.084;2023-02-28T01:40:49;-1.56;82.22
66144;SHT31;52947;50.842;6.084;2023-02-28T01:43:22;-1.67;82.29
66144;SHT31;52947;50.842;6.084;2023-02-28T01:45:53;-1.47;82.76
66144;SHT31;52947;50.842;6.084;2023-02-28T01:48:23;-1.54;82.45
66144;SHT31;52947;50.842;6.084;2023-02-28T01:50:55;-1.54;82.12
66144;SHT31;52947;50.842;6.084;2023-02-28T01:53:29;-1.58;81.93
66144;SHT31;52947;50.842;6.084;2023-02-28T01:56:00;-1.77;82.40
66144;SHT31;52947;50.842;6.084;2023-02-28T01:58:28;-1.71;82.75
66144;SHT31;52947;50.842;6.084;2023-02-28T02:00:57;-1.60;82.58
66144;SHT31;52947;50.842;6.084;2023-02-28T02:03:25;-1.70;82.58
66144;SHT31;52947;50.842;6.084;2023-02-28T02:05:53;-1.60;82.37
66144;SHT31;52947;50.842;6.084;2023-02-28T02:08:25;-1.54;82.11
66144;SHT31;52947;50.842;6.084;2023-02-28T02:10:56;-1.56;82.17
66144;SHT31;52947;50.842;6.084;2023-02-28T02:13:41;-1.63;82.33
66144;SHT31;52947;50.842;6.084;2023-02-28T02:16:26;-1.71;82.56
66144;SHT31;52947;50.842;6.084;2023-02-28T02:19:04;-1.77;82.85
66144;SHT31;52947;50.842;6.084;2023-02-28T02:22:05;-1.75;82.81
66144;SHT31;52947;50.842;6.084;2023-02-28T02:25:11;-1.84;83.18
66144;SHT31;52947;50.842;6.084;2023-02-28T02:28:22;-1.67;82.60
66144;SHT31;52947;50.842;6.084;2023-02-28T02:31:33;-1.79;82.94
66144;SHT31;52947;50.842;6.084;2023-02-28T02:34:20;-1.84;82.98
66144;SHT31;52947;50.842;6.084;2023-02-28T02:36:55;-1.87;83.08
66144;SHT31;52947;50.842;6.084;2023-02-28T02:39:29;-1.81;83.41
66144;SHT31;52947;50.842;6.084;2023-02-28T02:42:01;-1.89;83.27
66144;SHT31;52947;50.842;6.084;2023-02-28T02:44:37;-1.97;83.53
66144;SHT31;52947;50.842;6.084;2023-02-28T02:47:10;-1.95;83.52
66144;SHT31;52947;50.842;6.084;2023-02-28T02:49:45;-2.06;83.96
66144;SHT31;52947;50.842;6.084;2023-02-28T02:52:15;-2.09;83.96
66144;SHT31;52947;50.842;6.084;2023-02-28T02:54:47;-2.22;83.67
66144;SHT31;52947;50.842;6.084;2023-02-28T02:57:25;-2.12;84.22
66144;SHT31;52947;50.842;6.084;2023-02-28T02:59:56;-2.18;84.34
66144;SHT31;52947;50.842;6.084;2023-02-28T03:02:25;-2.18;84.23
66144;SHT31;52947;50.842;6.084;2023-02-28T03:05:00;-2.12;83.98
66144;SHT31;52947;50.842;6.084;2023-02-28T03:07:28;-2.22;84.28
66144;SHT31;52947;50.842;6.084;2023-02-28T03:09:57;-2.25;84.24
66144;SHT31;52947;50.842;6.084;2023-02-28T03:12:32;-2.28;84.36
66144;SHT31;52947;50.842;6.084;2023-02-28T03:15:08;-2.21;84.45
66144;SHT31;52947;50.842;6.084;2023-02-28T03:18:00;-2.32;84.44
66144;SHT31;52947;50.842;6.084;2023-02-28T03:20:40;-2.15;84.32
66144;SHT31;52947;50.842;6.084;2023-02-28T03:23:16;-2.08;84.33
66144;SHT31;52947;50.842;6.084;2023-02-28T03:25:56;-1.92;83.85
66144;SHT31;52947;50.842;6.084;2023-02-28T03:28:31;-2.06;83.75
66144;SHT31;52947;50.842;6.084;2023-02-28T03:31:04;-1.99;83.64
66144;SHT31;52947;50.842;6.084;2023-02-28T03:33:40;-1.97;83.91
66144;SHT31;52947;50.842;6.084;2023-02-28T03:36:14;-1.94;83.78
66144;SHT31;52947;50.842;6.084;2023-02-28T03:38:46;-1.85;83.80
66144;SHT31;52947;50.842;6.084;2023-02-28T03:41:19;-1.89;83.58
66144;SHT31;52947;50.842;6.084;2023-02-28T03:43:52;-1.88;83.77
66144;SHT31;52947;50.842;6.084;2023-02-28T03:46:24;-1.92;83.51
66144;SHT31;52947;50.842;6.084;2023-02-28T03:48:56;-1.94;83.49
66144;SHT31;52947;50.842;6.084;2023-02-28T03:51:28;-1.85;83.66
66144;SHT31;52947;50.842;6.084;2023-02-28T03:53:58;-1.78;83.37
66144;SHT31;52947;50.842;6.084;2023-02-28T03:56:31;-1.78;83.21
66144;SHT31;52947;50.842;6.084;2023-02-28T03:59:02;-1.60;83.18
66144;SHT31;52947;50.842;6.084;2023-02-28T04:01:35;-1.58;82.23
66144;SHT31;52947;50.842;6.084;2023-02-28T04:04:05;-1.71;82.74
66144;SHT31;52947;50.842;6.084;2023-02-28T04:06:35;-1.78;82.94
66144;SHT31;52947;50.842;6.084;2023-02-28T04:09:04;-1.94;83.23
66144;SHT31;52947;50.842;6.084;2023-02-28T04:11:34;-2.12;83.86
66144;SHT31;52947;50.842;6.084;2023-02-28T04:14:03;-2.35;83.95
66144;SHT31;52947;50.842;6.084;2023-02-28T04:16:33;-2.48;84.69
66144;SHT31;52947;50.842;6.084;2023-02-28T04:19:02;-2.59;84.82
66144;SHT31;52947;50.842;6.084;2023-02-28T04:21:32;-2.74;85.12
66144;SHT31;52947;50.842;6.084;2023-02-28T04:24:03;-2.81;85.52
66144;SHT31;52947;50.842;6.084;2023-02-28T04:26:31;-2.87;85.56
66144;SHT31;52947;50.842;6.084;2023-02-28T04:28:59;-3.04;85.79
66144;SHT31;52947;50.842;6.084;2023-02-28T04:31:28;-3.04;86.56
66144;SHT31;52947;50.842;6.084;2023-02-28T04:33:56;-3.01;86.75
66144;SHT31;52947;50.842;6.084;2023-02-28T04:36:24;-2.92;86.46
66144;SHT31;52947;50.842;6.084;2023-02-28T04:38:53;-2.98;86.40
66144;SHT31;52947;50.842;6.084;2023-02-28T04:41:22;-3.05;86.80
66144;SHT31;52947;50.842;6.084;2023-02-28T04:43:51;-3.01;86.78
66144;SHT31;52947;50.842;6.084;2023-02-28T04:46:19;-2.90;87.12
66144;SHT31;52947;50.842;6.084;2023-02-28T04:48:47;-2.80;86.83
66144;SHT31;52947;50.842;6.084;2023-02-28T04:51:17;-2.67;86.63
66144;SHT31;52947;50.842;6.084;2023-02-28T04:53:46;-2.50;86.56
66144;SHT31;52947;50.842;6.084;2023-02-28T04:56:16;-2.36;86.38
66144;SHT31;52947;50.842;6.084;2023-02-28T04:58:46;-2.39;86.06
66144;SHT31;52947;50.842;6.084;2023-02-28T05:01:20;-2.33;86.19
66144;SHT31;52947;50.842;6.084;2023-02-28T05:03:49;-2.40;86.16
66144;SHT31;52947;50.842;6.084;2023-02-28T05:06:18;-2.48;85.88
66144;SHT31;52947;50.842;6.084;2023-02-28T05:08:46;-2.57;86.31
66144;SHT31;52947;50.842;6.084;2023-02-28T05:11:17;-2.56;86.31
66144;SHT31;52947;50.842;6.084;2023-02-28T05:13:48;-2.57;86.58
66144;SHT31;52947;50.842;6.084;2023-02-28T05:16:16;-2.77;86.22
66144;SHT31;52947;50.842;6.084;2023-02-28T05:18:44;-2.90;87.17
66144;SHT31;52947;50.842;6.084;2023-02-28T05:21:23;-2.85;87.34
66144;SHT31;52947;50.842;6.084;2023-02-28T05:23:52;-2.85;87.28
66144;SHT31;52947;50.842;6.084;2023-02-28T05:26:20;-2.63;87.39
66144;SHT31;52947;50.842;6.084;2023-02-28T05:28:50;-2.56;86.96
66144;SHT31;52947;50.842;6.084;2023-02-28T05:31:18;-2.50;86.65
66144;SHT31;52947;50.842;6.084;2023-02-28T05:33:46;-2.33;86.30
66144;SHT31;52947;50.842;6.084;2023-02-28T05:36:14;-2.18;86.02
66144;SHT31;52947;50.842;6.084;2023-02-28T05:38:42;-2.13;86.02
66144;SHT31;52947;50.842;6.084;2023-02-28T05:41:10;-2.21;85.72
66144;SHT31;52947;50.842;6.084;2023-02-28T05:43:38;-2.22;85.91
66144;SHT31;52947;50.842;6.084;2023-02-28T05:46:10;-2.21;86.05
66144;SHT31;52947;50.842;6.084;2023-02-28T05:48:39;-2.38;86.23
66144;SHT31;52947;50.842;6.084;2023-02-28T05:51:08;-2.45;86.55
66144;SHT31;52947;50.842;6.084;2023-02-28T05:53:36;-2.52;86.64
66144;SHT31;52947;50.842;6.084;2023-02-28T05:56:04;-2.63;87.11
66144;SHT31;52947;50.842;6.084;2023-02-28T05:58:32;-2.73;87.00
66144;SHT31;52947;50.842;6.084;2023-02-28T06:01:21;-2.79;87.57
66144;SHT31;52947;50.842;6.084;2023-02-28T06:03:49;-2.88;87.71
66144;SHT31;52947;50.842;6.084;2023-02-28T06:06:17;-2.87;87.67
66144;SHT31;52947;50.842;6.084;2023-02-28T06:08:45;-2.90;87.54
66144;SHT31;52947;50.842;6.084;2023-02-28T06:11:13;-2.97;87.96
66144;SHT31;52947;50.842;6.084;2023-02-28T06:13:41;-2.98;87.83
66144;SHT31;52947;50.842;6.084;2023-02-28T06:16:10;-3.05;88.15
66144;SHT31;52947;50.842;6.084;2023-02-28T06:18:40;-3.00;88.13
66144;SHT31;52947;50.842;6.084;2023-02-28T06:21:08;-2.88;87.78
66144;SHT31;52947;50.842;6.084;2023-02-28T06:23:36;-2.66;87.36
66144;SHT31;52947;50.842;6.084;2023-02-28T06:26:04;-2.76;87.33
66144;SHT31;52947;50.842;6.084;2023-02-28T06:28:32;-2.81;87.16
66144;SHT31;52947;50.842;6.084;2023-02-28T06:31:05;-2.60;86.96
66144;SHT31;52947;50.842;6.084;2023-02-28T06:33:34;-2.46;86.62
66144;SHT31;52947;50.842;6.084;2023-02-28T06:36:04;-2.40;86.00
66144;SHT31;52947;50.842;6.084;2023-02-28T06:38:33;-2.29;85.94
66144;SHT31;52947;50.842;6.084;2023-02-28T06:41:01;-2.06;85.12
66144;SHT31;52947;50.842;6.084;2023-02-28T06:43:32;-1.72;84.31
66144;SHT31;52947;50.842;6.084;2023-02-28T06:46:02;-1.40;82.69
66144;SHT31;52947;50.842;6.084;2023-02-28T06:48:30;-0.95;81.65
66144;SHT31;52947;50.842;6.084;2023-02-28T06:51:04;-0.38;79.73
66144;SHT31;52947;50.842;6.084;2023-02-28T06:53:32;0.13;78.37
66144;SHT31;52947;50.842;6.084;2023-02-28T06:56:03;-0.03;77.81
66144;SHT31;52947;50.842;6.084;2023-02-28T06:58:33;0.15;77.58
66144;SHT31;52947;50.842;6.084;2023-02-28T07:01:01;0.19;77.34
66144;SHT31;52947;50.842;6.084;2023-02-28T07:03:29;0.21;77.28
66144;SHT31;52947;50.842;6.084;2023-02-28T07:06:00;0.47;76.05
66144;SHT31;52947;50.842;6.084;2023-02-28T07:08:29;1.37;73.87
66144;SHT31;52947;50.842;6.084;2023-02-28T07:10:58;2.16;70.67
66144;SHT31;52947;50.842;6.084;2023-02-28T07:13:26;2.93;68.51
66144;SHT31;52947;50.842;6.084;2023-02-28T07:15:55;3.65;65.71
66144;SHT31;52947;50.842;6.084;2023-02-28T07:18:24;3.89;64.71
66144;SHT31;52947;50.842;6.084;2023-02-28T07:20:52;3.80;65.56
66144;SHT31;52947;50.842;6.084;2023-02-28T07:23:20;4.80;62.64
66144;SHT31;52947;50.842;6.084;2023-02-28T07:25:50;5.26;60.40
66144;SHT31;52947;50.842;6.084;2023-02-28T07:28:18;6.06;58.32
66144;SHT31;52947;50.842;6.084;2023-02-28T07:30:46;6.64;56.60
66144;SHT31;52947;50.842;6.084;2023-02-28T07:33:15;7.32;55.06
66144;SHT31;52947;50.842;6.084;2023-02-28T07:35:43;7.58;53.94
66144;SHT31;52947;50.842;6.084;2023-02-28T07:38:11;7.15;53.44
66144;SHT31;52947;50.842;6.084;2023-02-28T07:40:40;7.51;53.77
66144;SHT31;52947;50.842;6.084;2023-02-28T07:43:09;8.13;51.65
66144;SHT31;52947;50.842;6.084;2023-02-28T07:45:37;8.95;50.42
66144;SHT31;52947;50.842;6.084;2023-02-28T07:48:05;8.89;49.69
66144;SHT31;52947;50.842;6.084;2023-02-28T07:50:33;9.40;48.93
66144;SHT31;52947;50.842;6.084;2023-02-28T07:53:01;10.33;47.25
66144;SHT31;52947;50.842;6.084;2023-02-28T07:55:29;10.53;46.53
66144;SHT31;52947;50.842;6.084;2023-02-28T07:57:57;10.90;45.35
66144;SHT31;52947;50.842;6.084;2023-02-28T08:00:27;10.91;45.39
66144;SHT31;52947;50.842;6.084;2023-02-28T08:02:56;10.18;46.50
66144;SHT31;52947;50.842;6.084;2023-02-28T08:05:24;11.27;44.39
66144;SHT31;52947;50.842;6.084;2023-02-28T08:07:52;10.60;45.19
66144;SHT31;52947;50.842;6.084;2023-02-28T08:10:21;9.51;45.25
66144;SHT31;52947;50.842;6.084;2023-02-28T08:12:49;9.73;45.74
66144;SHT31;52947;50.842;6.084;2023-02-28T08:15:17;9.15;46.21
66144;SHT31;52947;50.842;6.084;2023-02-28T08:17:46;10.06;44.90
66144;SHT31;52947;50.842;6.084;2023-02-28T08:20:14;10.43;44.93
66144;SHT31;52947;50.842;6.084;2023-02-28T08:22:42;10.22;45.01
66144;SHT31;52947;50.842;6.084;2023-02-28T08:25:11;9.99;43.72
66144;SHT31;52947;50.842;6.084;2023-02-28T08:27:39;10.46;43.78
66144;SHT31;52947;50.842;6.084;2023-02-28T08:30:10;9.38;45.15
66144;SHT31;52947;50.842;6.084;2023-02-28T08:32:38;8.88;46.38
66144;SHT31;52947;50.842;6.084;2023-02-28T08:35:08;9.05;46.76
66144;SHT31;52947;50.842;6.084;2023-02-28T08:37:36;9.64;44.48
66144;SHT31;52947;50.842;6.084;2023-02-28T08:40:06;10.42;44.40
66144;SHT31;52947;50.842;6.084;2023-02-28T08:42:34;10.13;42.56
66144;SHT31;52947;50.842;6.084;2023-02-28T08:45:02;10.55;42.93
66144;SHT31;52947;50.842;6.084;2023-02-28T08:47:31;9.87;42.33
66144;SHT31;52947;50.842;6.084;2023-02-28T08:49:59;9.73;42.89
66144;SHT31;52947;50.842;6.084;2023-02-28T08:52:28;9.95;43.37
66144;SHT31;52947;50.842;6.084;2023-02-28T08:54:56;9.89;43.41
66144;SHT31;52947;50.842;6.084;2023-02-28T08:57:24;9.64;43.11
66144;SHT31;52947;50.842;6.084;2023-02-28T08:59:53;9.02;43.67
66144;SHT31;52947;50.842;6.084;2023-02-28T09:02:21;8.66;45.15
66144;SHT31;52947;50.842;6.084;2023-02-28T09:04:49;8.51;44.07
66144;SHT31;52947;50.842;6.084;2023-02-28T09:07:17;8.95;45.28
66144;SHT31;52947;50.842;6.084;2023-02-28T09:09:46;8.42;43.33
66144;SHT31;52947;50.842;6.084;2023-02-28T09:12:21;8.18;44.28
66144;SHT31;52947;50.842;6.084;2023-02-28T09:14:49;9.13;43.43
66144;SHT31;52947;50.842;6.084;2023-02-28T09:17:18;10.67;48.54
66144;SHT31;52947;50.842;6.084;2023-02-28T09:19:47;11.24;47.29
66144;SHT31;52947;50.842;6.084;2023-02-28T09:22:15;10.60;43.69
66144;SHT31;52947;50.842;6.084;2023-02-28T09:24:43;10.11;43.54
66144;SHT31;52947;50.842;6.084;2023-02-28T09:27:13;11.43;39.40
66144;SHT31;52947;50.842;6.084;2023-02-28T09:29:41;11.62;42.43
66144;SHT31;52947;50.842;6.084;2023-02-28T09:32:09;10.50;40.51
66144;SHT31;52947;50.842;6.084;2023-02-28T09:34:37;10.36;39.41
66144;SHT31;52947;50.842;6.084;2023-02-28T09:37:05;10.74;39.54
66144;SHT31;52947;50.842;6.084;2023-02-28T09:39:33;11.01;40.22
66144;SHT31;52947;50.842;6.084;2023-02-28T09:42:02;10.90;40.47
66144;SHT31;52947;50.842;6.084;2023-02-28T09:44:35;9.34;40.62
66144;SHT31;52947;50.842;6.084;2023-02-28T09:47:10;9.22;42.23
66144;SHT31;52947;50.842;6.084;2023-02-28T09:49:41;9.34;41.38
66144;SHT31;52947;50.842;6.084;2023-02-28T09:52:12;9.50;39.88
66144;SHT31;52947;50.842;6.084;2023-02-28T09:54:41;10.03;38.40
66144;SHT31;52947;50.842;6.084;2023-02-28T09:57:23;9.89;37.62
66144;SHT31;52947;50.842;6.084;2023-02-28T10:00:05;8.35;40.07
66144;SHT31;52947;50.842;6.084;2023-02-28T10:05:52;7.08;42.95
66144;SHT31;52947;50.842;6.084;2023-02-28T10:08:24;7.31;46.39
66144;SHT31;52947;50.842;6.084;2023-02-28T10:10:56;7.18;44.88
66144;SHT31;52947;50.842;6.084;2023-02-28T10:13:27;7.76;45.70
66144;SHT31;52947;50.842;6.084;2023-02-28T10:16:03;7.66;45.17
66144;SHT31;52947;50.842;6.084;2023-02-28T10:18:39;5.67;45.33
66144;SHT31;52947;50.842;6.084;2023-02-28T10:21:18;5.37;44.87
66144;SHT31;52947;50.842;6.084;2023-02-28T10:23:48;6.66;42.93
66144;SHT31;52947;50.842;6.084;2023-02-28T10:26:17;6.57;44.79
66144;SHT31;52947;50.842;6.084;2023-02-28T10:28:46;7.77;41.88
66144;SHT31;52947;50.842;6.084;2023-02-28T10:31:18;6.58;42.68
66144;SHT31;52947;50.842;6.084;2023-02-28T10:33:47;6.57;43.14
66144;SHT31;52947;50.842;6.084;2023-02-28T10:36:18;6.37;42.28
66144;SHT31;52947;50.842;6.084;2023-02-28T10:38:47;7.46;42.46
66144;SHT31;52947;50.842;6.084;2023-02-28T10:41:25;6.58;41.64
66144;SHT31;52947;50.842;6.084;2023-02-28T10:44:13;6.28;41.42
66144;SHT31;52947;50.842;6.084;2023-02-28T10:46:43;6.43;40.82
66144;SHT31;52947;50.842;6.084;2023-02-28T10:49:17;7.28;43.58
66144;SHT31;52947;50.842;6.084;2023-02-28T10:51:48;6.76;43.00
66144;SHT31;52947;50.842;6.084;2023-02-28T10:54:22;6.97;42.66
66144;SHT31;52947;50.842;6.084;2023-02-28T10:57:16;7.56;39.96
66144;SHT31;52947;50.842;6.084;2023-02-28T10:59:45;6.13;42.37
66144;SHT31;52947;50.842;6.084;2023-02-28T11:02:32;8.44;38.62
66144;SHT31;52947;50.842;6.084;2023-02-28T11:05:02;8.41;39.16
66144;SHT31;52947;50.842;6.084;2023-02-28T11:07:30;9.30;38.94
66144;SHT31;52947;50.842;6.084;2023-02-28T11:10:19;9.27;38.60
66144;SHT31;52947;50.842;6.084;2023-02-28T11:12:48;9.02;37.25
66144;SHT31;52947;50.842;6.084;2023-02-28T11:15:23;9.84;40.43
66144;SHT31;52947;50.842;6.084;2023-02-28T11:17:59;9.43;35.89
66144;SHT31;52947;50.842;6.084;2023-02-28T11:20:29;8.55;38.43
66144;SHT31;52947;50.842;6.084;2023-02-28T11:22:58;8.93;39.34
66144;SHT31;52947;50.842;6.084;2023-02-28T11:25:30;10.01;37.50
66144;SHT31;52947;50.842;6.084;2023-02-28T11:28:01;10.35;36.35
66144;SHT31;52947;50.842;6.084;2023-02-28T11:30:36;9.41;37.17
66144;SHT31;52947;50.842;6.084;2023-02-28T11:35:58;7.00;39.40
66144;SHT31;52947;50.842;6.084;2023-02-28T11:38:28;8.35;38.52
66144;SHT31;52947;50.842;6.084;2023-02-28T11:41:07;8.17;38.19
66144;SHT31;52947;50.842;6.084;2023-02-28T11:43:46;8.90;36.83
66144;SHT31;52947;50.842;6.084;2023-02-28T11:46:26;9.17;36.86
66144;SHT31;52947;50.842;6.084;2023-02-28T11:49:02;8.40;37.78
66144;SHT31;52947;50.842;6.084;2023-02-28T11:51:34;9.62;36.58
66144;SHT31;52947;50.842;6.084;2023-02-28T11:54:23;9.78;36.02
66144;SHT31;52947;50.842;6.084;2023-02-28T11:56:58;7.52;39.58
66144;SHT31;52947;50.842;6.084;2023-02-28T11:59:46;8.13;39.07
66144;SHT31;52947;50.842;6.084;2023-02-28T12:02:23;6.77;40.28
66144;SHT31;52947;50.842;6.084;2023-02-28T12:05:03;8.96;38.71
66144;SHT31;52947;50.842;6.084;2023-02-28T12:07:44;8.00;38.22
66144;SHT31;52947;50.842;6.084;2023-02-28T12:10:21;6.16;41.02
66144;SHT31;52947;50.842;6.084;2023-02-28T12:13:02;7.22;40.95
66144;SHT31;52947;50.842;6.084;2023-02-28T12:15:46;5.95;41.69
66144;SHT31;52947;50.842;6.084;2023-02-28T12:18:25;5.62;42.63
66144;SHT31;52947;50.842;6.084;2023-02-28T12:21:00;6.58;41.79
66144;SHT31;52947;50.842;6.084;2023-02-28T12:23:50;7.96;38.91
66144;SHT31;52947;50.842;6.084;2023-02-28T12:26:29;8.00;39.16
66144;SHT31;52947;50.842;6.084;2023-02-28T12:29:02;8.11;39.74
66144;SHT31;52947;50.842;6.084;2023-02-28T12:31:35;6.57;40.55
66144;SHT31;52947;50.842;6.084;2023-02-28T12:34:07;5.24;43.84
66144;SHT31;52947;50.842;6.084;2023-02-28T12:36:37;5.43;44.17
66144;SHT31;52947;50.842;6.084;2023-02-28T12:39:08;6.90;42.52
66144;SHT31;52947;50.842;6.084;2023-02-28T12:41:41;7.56;39.72
66144;SHT31;52947;50.842;6.084;2023-02-28T12:44:12;7.91;38.78
66144;SHT31;52947;50.842;6.084;2023-02-28T12:46:46;8.11;38.33
66144;SHT31;52947;50.842;6.084;2023-02-28T12:49:18;8.72;38.43
66144;SHT31;52947;50.842;6.084;2023-02-28T12:51:47;8.40;38.15
66144;SHT31;52947;50.842;6.084;2023-02-28T12:54:22;8.71;39.42
66144;SHT31;52947;50.842;6.084;2023-02-28T12:56:57;8.48;38.42
66144;SHT31;52947;50.842;6.084;2023-02-28T12:59:35;8.34;38.54
66144;SHT31;52947;50.842;6.084;2023-02-28T13:02:42;8.03;39.36
66144;SHT31;52947;50.842;6.084;2023-02-28T13:05:34;7.80;39.63
66144;SHT31;52947;50.842;6.084;2023-02-28T13:08:24;7.52;39.66
66144;SHT31;52947;50.842;6.084;2023-02-28T13:10:57;8.48;39.72
66144;SHT31;52947;50.842;6.084;2023-02-28T13:13:27;6.97;44.50
66144;SHT31;52947;50.842;6.084;2023-02-28T13:16:02;7.53;42.82
66144;SHT31;52947;50.842;6.084;2023-02-28T13:18:33;7.01;43.99
66144;SHT31;52947;50.842;6.084;2023-02-28T13:21:04;6.98;44.31
66144;SHT31;52947;50.842;6.084;2023-02-28T13:23:39;6.49;45.69
66144;SHT31;52947;50.842;6.084;2023-02-28T13:26:09;4.92;47.05
66144;SHT31;52947;50.842;6.084;2023-02-28T13:29:21;6.16;46.56
66144;SHT31;52947;50.842;6.084;2023-02-28T13:32:19;5.77;46.38
66144;SHT31;52947;50.842;6.084;2023-02-28T13:35:12;5.24;47.50
66144;SHT31;52947;50.842;6.084;2023-02-28T13:37:47;4.76;49.14
66144;SHT31;52947;50.842;6.084;2023-02-28T13:40:29;4.51;48.76
66144;SHT31;52947;50.842;6.084;2023-02-28T13:43:07;5.44;48.06
66144;SHT31;52947;50.842;6.084;2023-02-28T13:45:36;5.37;48.64
66144;SHT31;52947;50.842;6.084;2023-02-28T13:48:15;5.24;47.42
66144;SHT31;52947;50.842;6.084;2023-02-28T13:50:44;4.97;48.04
66144;SHT31;52947;50.842;6.084;2023-02-28T13:56:27;4.64;48.80
66144;SHT31;52947;50.842;6.084;2023-02-28T13:59:06;4.95;49.45
66144;SHT31;52947;50.842;6.084;2023-02-28T14:01:47;5.61;46.96
66144;SHT31;52947;50.842;6.084;2023-02-28T14:07:21;5.91;46.84
66144;SHT31;52947;50.842;6.084;2023-02-28T14:09:56;6.12;45.66
66144;SHT31;52947;50.842;6.084;2023-02-28T14:12:57;6.12;46.30
66144;SHT31;52947;50.842;6.084;2023-02-28T14:15:30;5.24;47.48
66144;SHT31;52947;50.842;6.084;2023-02-28T14:18:03;4.58;49.18
66144;SHT31;52947;50.842;6.084;2023-02-28T14:20:33;4.24;49.03
66144;SHT31;52947;50.842;6.084;2023-02-28T14:23:07;4.59;49.69
66144;SHT31;52947;50.842;6.084;2023-02-28T14:25:39;4.80;47.81
66144;SHT31;52947;50.842;6.084;2023-02-28T14:28:16;4.92;48.45
66144;SHT31;52947;50.842;6.084;2023-02-28T14:30:59;4.42;49.51
66144;SHT31;52947;50.842;6.084;2023-02-28T14:33:41;4.65;48.91
66144;SHT31;52947;50.842;6.084;2023-02-28T14:36:16;4.75;47.27
66144;SHT31;52947;50.842;6.084;2023-02-28T14:38:47;4.69;48.28
66144;SHT31;52947;50.842;6.084;2023-02-28T14:41:23;4.55;48.41
66144;SHT31;52947;50.842;6.084;2023-02-28T14:43:53;4.58;49.29
66144;SHT31;52947;50.842;6.084;2023-02-28T14:46:26;4.17;49.55
66144;SHT31;52947;50.842;6.084;2023-02-28T14:48:55;4.27;49.87
66144;SHT31;52947;50.842;6.084;2023-02-28T14:51:23;4.24;50.06
66144;SHT31;52947;50.842;6.084;2023-02-28T14:53:57;4.31;50.48
66144;SHT31;52947;50.842;6.084;2023-02-28T14:56:27;4.18;50.94
66144;SHT31;52947;50.842;6.084;2023-02-28T14:58:57;4.06;51.47
66144;SHT31;52947;50.842;6.084;2023-02-28T15:01:27;4.10;52.07
66144;SHT31;52947;50.842;6.084;2023-02-28T15:03:59;4.13;52.22
66144;SHT31;52947;50.842;6.084;2023-02-28T15:06:28;4.18;51.47
66144;SHT31;52947;50.842;6.084;2023-02-28T15:09:10;4.24;51.96
66144;SHT31;52947;50.842;6.084;2023-02-28T15:11:39;4.22;52.32
66144;SHT31;52947;50.842;6.084;2023-02-28T15:14:14;4.24;52.22
66144;SHT31;52947;50.842;6.084;2023-02-28T15:16:46;4.22;51.80
66144;SHT31;52947;50.842;6.084;2023-02-28T15:19:19;4.28;52.08
66144;SHT31;52947;50.842;6.084;2023-02-28T15:21:52;4.17;51.32
66144;SHT31;52947;50.842;6.084;2023-02-28T15:24:30;4.21;51.43
66144;SHT31;52947;50.842;6.084;2023-02-28T15:27:02;4.24;51.71
66144;SHT31;52947;50.842;6.084;2023-02-28T15:29:37;4.06;51.56
66144;SHT31;52947;50.842;6.084;2023-02-28T15:32:26;3.96;51.61
66144;SHT31;52947;50.842;6.084;2023-02-28T15:34:55;3.98;52.23
66144;SHT31;52947;50.842;6.084;2023-02-28T15:37:38;4.01;51.89
66144;SHT31;52947;50.842;6.084;2023-02-28T15:40:13;4.06;51.62
66144;SHT31;52947;50.842;6.084;2023-02-28T15:42:41;4.08;52.00
66144;SHT31;52947;50.842;6.084;2023-02-28T15:45:27;4.11;50.78
66144;SHT31;52947;50.842;6.084;2023-02-28T15:47:57;4.06;50.86
66144;SHT31;52947;50.842;6.084;2023-02-28T15:50:39;4.07;51.16
66144;SHT31;52947;50.842;6.084;2023-02-28T15:53:12;4.13;50.90
66144;SHT31;52947;50.842;6.084;2023-02-28T15:55:40;4.08;51.21
66144;SHT31;52947;50.842;6.084;2023-02-28T15:58:11;4.00;50.74
66144;SHT31;52947;50.842;6.084;2023-02-28T16:00:43;3.98;50.90
66144;SHT31;52947;50.842;6.084;2023-02-28T16:03:27;3.98;51.02
66144;SHT31;52947;50.842;6.084;2023-02-28T16:09:12;3.90;51.12
66144;SHT31;52947;50.842;6.084;2023-02-28T16:11:43;3.87;50.95
66144;SHT31;52947;50.842;6.084;2023-02-28T16:14:17;3.85;51.44
66144;SHT31;52947;50.842;6.084;2023-02-28T16:16:48;3.82;52.00
66144;SHT31;52947;50.842;6.084;2023-02-28T16:19:19;3.77;52.41
66144;SHT31;52947;50.842;6.084;2023-02-28T16:21:47;3.75;51.49
66144;SHT31;52947;50.842;6.084;2023-02-28T16:24:15;3.69;52.22
66144;SHT31;52947;50.842;6.084;2023-02-28T16:26:46;3.67;52.61